EGGW

London Luton Airport

London, United Kingdom
METAR EGGW 172120Z AUTO 19005KT 9999 NCD 04/01 Q1022
Observed Flight Rules
Feb-17 @ 21:20 UTC (18 minutes ago) Visual Flight Rules
Wind Visibility Clouds
190° at 5 knots 10,000+ meters
  • Clear skies
Temperatures Readings
Current 4°C / 39°F
Dewpoint 1°C / 34°F
Humidity 81%
Altimeter 30.18" Hg
Pressure 1022 hPa
Elevation 160
METAR EGGW 172120Z AUTO 19005KT 9999 NCD 04/01 Q1022
Observed Flight Rules
Feb-17 @ 21:20 UTC
(18 minutes ago)
VFR
Wind Visibility
190° at 5 knots 10,000+ meters
Clouds
  • Clear skies
Temperature Dewpoint
4°C / 39°F 1°C / 34°F
Humidity Altimeter Pressure
81% 30.18" Hg 1022 hPa